createdAt,value
2022-09-24T00:04:21.232Z,90.31829
2022-09-24T00:09:22.692Z,87.25581
2022-09-24T00:14:25.147Z,85.2844
2022-09-24T00:19:26.938Z,82.42697
2022-09-24T00:24:28.449Z,86.59259
2022-09-24T00:29:30.411Z,88.60094
2022-09-24T00:34:32.321Z,84.9611
2022-09-24T00:39:34.071Z,77.62256
2022-09-24T00:44:35.586Z,72.60125
2022-09-24T00:49:37.372Z,67.44689
2022-09-24T00:54:39.142Z,68.19355
2022-09-24T00:59:41.221Z,70.74897
2022-09-24T01:04:42.621Z,71.53623
2022-09-24T01:09:44.055Z,75.06383
2022-09-24T01:14:45.847Z,73.68421
2022-09-24T01:19:47.471Z,73.14046
2022-09-24T01:24:49.107Z,68.69636
2022-09-24T01:29:51.057Z,61.55725
2022-09-24T01:34:52.650Z,57.65314
2022-09-24T01:39:54.342Z,63.14894
2022-09-24T01:44:56.292Z,91.01671
2022-09-24T01:49:57.812Z,106.96296
2022-09-24T01:54:59.486Z,110.03774
2022-09-24T02:00:01.123Z,130.66667
2022-09-24T02:05:02.909Z,152.10811
2022-09-24T02:10:04.561Z,162.43972
2022-09-24T02:15:06.163Z,162.43972
2022-09-24T02:20:09.818Z,174.71161
2022-09-24T02:25:11.311Z,174.71161
2022-09-24T02:30:12.907Z,182.75969
2022-09-24T02:35:14.558Z,176.45283
2022-09-24T02:40:16.360Z,174.71161
2022-09-24T02:45:18.263Z,183.68872
2022-09-24T02:50:19.797Z,168
2022-09-24T02:55:21.557Z,177.33333
2022-09-24T03:00:23.509Z,170.47059
2022-09-24T03:05:25.080Z,168.81752
2022-09-24T03:10:26.749Z,171.30627
2022-09-24T03:15:28.201Z,172.99628
2022-09-24T03:20:29.778Z,170.47059
2022-09-24T03:25:31.177Z,172.14815
2022-09-24T03:30:33.023Z,167.18841
2022-09-24T03:35:34.500Z,162.43972
2022-09-24T03:40:36.033Z,162.43972
2022-09-24T03:45:37.649Z,159.38462
2022-09-24T03:50:39.079Z,158.63415
2022-09-24T03:55:41.251Z,158.63415
2022-09-24T04:00:43.193Z,150.71141
2022-09-24T04:05:44.909Z,150.71141
2022-09-24T04:10:46.650Z,154.9589
2022-09-24T04:15:48.447Z,150.71141
2022-09-24T04:20:50.374Z,134.71207
2022-09-24T04:25:52.192Z,135.30435
2022-09-24T04:30:54.095Z,135.90031
2022-09-24T04:35:55.838Z,134.12346
2022-09-24T04:40:57.699Z,142.07074
2022-09-24T04:45:59.731Z,144
2022-09-24T04:51:01.645Z,154.9589
2022-09-24T04:56:03.443Z,156.41379
2022-09-24T05:01:05.619Z,156.41379
2022-09-24T05:06:07.544Z,140.17834
2022-09-24T05:11:09.301Z,140.80511
2022-09-24T05:16:11.249Z,136.5
2022-09-24T05:21:13.030Z,148.65116
2022-09-24T05:26:14.768Z,138.32177
2022-09-24T05:31:16.826Z,152.81356
2022-09-24T05:36:18.580Z,160.90141
2022-09-24T05:41:20.300Z,151.40741
2022-09-24T05:46:22.181Z,159.38462
2022-09-24T05:51:23.748Z,172.99628
2022-09-24T05:56:25.195Z,152.81356
2022-09-24T06:01:26.951Z,168
2022-09-24T06:06:28.450Z,164.78853
2022-09-24T06:11:29.917Z,156.41379
2022-09-24T06:16:31.616Z,153.52381
2022-09-24T06:21:33.163Z,191.38956
2022-09-24T06:26:34.601Z,220.23318
2022-09-24T06:31:36.660Z,258.28571
2022-09-24T06:36:38.274Z,247.44828
2022-09-24T06:41:40.098Z,273.41176
2022-09-24T06:46:42.136Z,268.21053
2022-09-24T06:51:43.948Z,290.06742
2022-09-24T06:56:45.556Z,275.1828
2022-09-24T07:01:47.478Z,315.08434
2022-09-24T07:06:49.122Z,312.86228
2022-09-24T07:11:50.759Z,319.60976
2022-09-24T07:16:52.390Z,326.6087
2022-09-24T07:21:54.072Z,357.42282
2022-09-24T07:26:55.713Z,349.26316
2022-09-24T07:31:57.634Z,331.42138
2022-09-24T07:36:59.350Z,354.66667
2022-09-24T07:42:00.989Z,336.35669
2022-09-24T07:47:02.648Z,329
2022-09-24T07:52:04.471Z,371.77778
2022-09-24T07:57:06.191Z,407.15789
2022-09-24T08:02:08.221Z,380.87943
2022-09-24T08:07:09.971Z,410.66667
2022-09-24T08:12:11.681Z,374.76923
2022-09-24T08:17:13.401Z,440.77419
2022-09-24T08:22:15.124Z,436.8
2022-09-24T08:27:17.574Z,525.13208
2022-09-24T08:32:19.693Z,489.13274
2022-09-24T08:37:21.414Z,514.37037
2022-09-24T08:42:23.165Z,484.35088
2022-09-24T08:47:24.646Z,572.57143
2022-09-24T08:52:26.039Z,466.0339
2022-09-24T08:57:27.770Z,628.44444
2022-09-24T09:02:29.732Z,652.04598
2022-09-24T09:07:31.490Z,579.05155
2022-09-24T09:12:33.229Z,652.04598
2022-09-24T09:17:34.982Z,677.33333
2022-09-24T09:22:36.633Z,765.33333
2022-09-24T09:27:38.413Z,714
2022-09-24T09:32:40.620Z,824
2022-09-24T09:37:42.403Z,906.5
2022-09-24T09:42:43.969Z,787.83562
2022-09-24T09:47:45.361Z,1024.70175
2022-09-24T09:52:46.771Z,953.83607
2022-09-24T09:57:48.286Z,970.66667
2022-09-24T10:02:50.166Z,953.83607
2022-09-24T10:07:51.755Z,776.43243
2022-09-24T10:12:53.200Z,863.40299
2022-09-24T10:17:54.699Z,787.83562
2022-09-24T10:22:56.119Z,836.75362
2022-09-24T10:27:57.621Z,906.5
2022-09-24T10:32:59.279Z,1024.70175
2022-09-24T10:38:00.716Z,1024.70175
2022-09-24T10:43:02.551Z,1084.74074
2022-09-24T10:48:04.204Z,704.49383
2022-09-24T10:53:05.724Z,776.43243
2022-09-24T10:58:07.259Z,849.88235
2022-09-24T11:03:09.015Z,824
2022-09-24T11:08:10.447Z,744
2022-09-24T11:13:11.879Z,937.54839
2022-09-24T11:18:13.458Z,1084.74074
2022-09-24T11:23:14.878Z,1064
2022-09-24T11:28:16.544Z,906.5
2022-09-24T11:33:22.718Z,1283.13043
2022-09-24T11:38:24.746Z,1201.14286
2022-09-24T11:43:26.284Z,953.83607
2022-09-24T11:48:27.873Z,1064
2022-09-24T11:53:29.389Z,1084.74074
2022-09-24T11:58:30.901Z,1312.88889
2022-09-24T12:03:32.888Z,1024.70175
2022-09-24T12:08:34.650Z,1176
2022-09-24T12:13:36.204Z,1227.33333
2022-09-24T12:18:38.004Z,1344
2022-09-24T12:23:39.778Z,1151.84314
2022-09-24T12:28:41.524Z,1810.66667
2022-09-24T12:33:43.479Z,1565.05263
2022-09-24T12:38:45.222Z,1931.09677
2022-09-24T12:43:46.959Z,1523.48718
2022-09-24T12:48:48.884Z,1446.43902
2022-09-24T12:53:50.643Z,1312.88889
2022-09-24T12:58:52.280Z,1376.55814
2022-09-24T13:03:53.993Z,1312.88889
2022-09-24T13:08:55.916Z,1446.43902
2022-09-24T13:13:57.626Z,1446.43902
2022-09-24T13:18:59.441Z,1376.55814
2022-09-24T13:24:01.217Z,1565.05263
2022-09-24T13:29:02.974Z,1410.66667
2022-09-24T13:34:05.014Z,1254.6383
2022-09-24T13:39:06.876Z,1024.70175
2022-09-24T13:44:08.711Z,1227.33333
2022-09-24T13:49:10.576Z,1344
2022-09-24T13:54:12.344Z,1151.84314
2022-09-24T13:59:14.081Z,1344
2022-09-24T14:04:15.751Z,1376.55814
2022-09-24T14:09:17.173Z,1755.76471
2022-09-24T14:14:18.742Z,1312.88889
2022-09-24T14:19:20.278Z,1410.66667
2022-09-24T14:24:21.829Z,1608.86486
2022-09-24T14:29:23.560Z,1484
2022-09-24T14:34:25.304Z,1704
2022-09-24T14:39:26.776Z,1608.86486
2022-09-24T14:44:28.476Z,1128.61538
2022-09-24T14:49:30.127Z,1565.05263
2022-09-24T14:54:31.677Z,970.66667
2022-09-24T14:59:33.246Z,836.75362
2022-09-24T15:04:34.969Z,704.49383
2022-09-24T15:09:36.486Z,542.05825
2022-09-24T15:14:37.927Z,754.52632
2022-09-24T15:19:39.461Z,863.40299
2022-09-24T15:24:41.018Z,695.21951
2022-09-24T15:29:42.484Z,1106.26415
2022-09-24T15:34:44.313Z,799.55556
2022-09-24T15:39:45.749Z,811.60563
2022-09-24T15:44:47.274Z,494
2022-09-24T15:49:48.732Z,606.36559
2022-09-24T15:54:50.389Z,530.66667
2022-09-24T15:59:52.158Z,566.22222
2022-09-24T16:04:53.852Z,668.70588
2022-09-24T16:09:55.326Z,723.74684
2022-09-24T16:14:56.937Z,668.70588
2022-09-24T16:19:58.745Z,677.33333
2022-09-24T16:25:00.307Z,504
2022-09-24T16:30:02.085Z,514.37037
2022-09-24T16:35:04.035Z,466.0339
2022-09-24T16:40:05.805Z,393.63504
2022-09-24T16:45:07.542Z,365.91781
2022-09-24T16:50:09.301Z,429.03937
2022-09-24T16:55:11.041Z,444.81301
2022-09-24T17:00:12.933Z,457.33333
2022-09-24T17:05:14.905Z,504
2022-09-24T17:10:16.655Z,599.31915
2022-09-24T17:15:18.410Z,536.30769
2022-09-24T17:20:20.155Z,475.03448
2022-09-24T17:25:21.928Z,475.03448
2022-09-24T17:30:23.658Z,425.25
2022-09-24T17:35:25.745Z,357.42282
2022-09-24T17:40:27.467Z,338.87179
2022-09-24T17:45:28.999Z,365.91781
2022-09-24T17:50:30.494Z,357.42282
2022-09-24T17:55:32.063Z,371.77778
2022-09-24T18:00:33.839Z,349.26316
2022-09-24T18:05:35.506Z,351.94702
2022-09-24T18:10:37.012Z,292.0226
2022-09-24T18:15:38.560Z,275.1828
2022-09-24T18:20:40.136Z,294
2022-09-24T18:25:41.754Z,302.13953
2022-09-24T18:30:43.435Z,308.49704
2022-09-24T18:35:45.188Z,276.97297
2022-09-24T18:40:46.905Z,271.65957
2022-09-24T18:45:48.674Z,288.13408
2022-09-24T18:50:50.591Z,255.11111
2022-09-24T18:55:52.422Z,286.22222
2022-09-24T19:00:54.039Z,300.06936
2022-09-24T19:05:55.878Z,278.78261
2022-09-24T19:10:57.682Z,284.33149
2022-09-24T19:15:59.640Z,252
2022-09-24T19:21:01.732Z,216.56637
2022-09-24T19:26:03.541Z,209.51724
2022-09-24T19:31:05.353Z,189.41833
2022-09-24T19:36:07.327Z,212.99563
2022-09-24T19:41:09.070Z,230.51163
2022-09-24T19:46:10.945Z,205.01695
2022-09-24T19:51:12.853Z,210.66667
2022-09-24T19:56:14.950Z,205.01695
2022-09-24T20:01:17.704Z,188.44444
2022-09-24T20:06:21.094Z,174.71161
2022-09-24T20:11:23.348Z,164.78853
2022-09-24T20:16:25.122Z,148.65116
2022-09-24T20:21:26.873Z,154.23891
2022-09-24T20:26:28.344Z,186.51969
2022-09-24T20:31:30.082Z,168
2022-09-24T20:36:32.330Z,184.625
2022-09-24T20:41:33.963Z,195.42857
2022-09-24T20:46:35.622Z,229.18519
2022-09-24T20:51:37.245Z,258.28571
2022-09-24T20:56:38.755Z,258.28571
2022-09-24T21:01:40.257Z,256.69036
2022-09-24T21:06:42.220Z,245.96078
2022-09-24T21:11:43.648Z,231.85047
2022-09-24T21:16:45.384Z,226.56881
2022-09-24T21:21:47.313Z,244.4878
2022-09-24T21:26:49.022Z,271.65957
2022-09-24T21:31:50.739Z,292.0226
2022-09-24T21:36:52.592Z,276.97297
2022-09-24T21:41:54.272Z,261.52577
2022-09-24T21:46:56.014Z,250.46766
2022-09-24T21:51:57.751Z,247.44828
2022-09-24T21:56:59.553Z,245.96078
2022-09-24T22:02:01.226Z,261.52577
2022-09-24T22:07:02.937Z,275.1828
2022-09-24T22:12:04.406Z,275.1828
2022-09-24T22:17:06.003Z,300.06936
2022-09-24T22:22:07.679Z,290.06742
2022-09-24T22:27:09.131Z,304.23392
2022-09-24T22:32:10.658Z,290.06742
2022-09-24T22:37:12.329Z,280.61202
2022-09-24T22:42:13.770Z,261.52577
2022-09-24T22:47:15.229Z,264.83333
2022-09-24T22:52:16.871Z,284.33149
2022-09-24T22:57:18.277Z,275.1828
2022-09-24T23:02:19.758Z,275.1828
2022-09-24T23:07:21.382Z,282.46154
2022-09-24T23:12:22.812Z,278.78261
2022-09-24T23:17:24.366Z,276.97297
2022-09-24T23:22:25.895Z,280.61202
2022-09-24T23:27:27.372Z,286.22222
2022-09-24T23:32:28.814Z,286.22222
2022-09-24T23:37:30.466Z,324.24691
2022-09-24T23:42:32.208Z,300.06936
2022-09-24T23:47:36.145Z,294
2022-09-24T23:52:37.957Z,244.4878
2022-09-24T23:57:39.555Z,253.54774
